Time;durP1;ratioP1;P1;durP2;ratioP2;P2;SDS_P1;SDS_P2;PMS_P1;PMS_P2;Temp;Humidity;BMP_temperature;BMP_pressure;BME280_temperature;BME280_humidity;BME280_pressure;Samples;Min_cycle;Max_cycle;Signal;HPM_P1;HPM_P2
2021/09/06 00:02:18;;;;;;;22.17;13.57;;;;;;;17.19;69.95;102174.63;5051700;28;20461;-59
2021/09/06 00:05:09;;;;;;;21.60;13.38;;;;;;;17.16;70.20;102177.94;5052155;28;20083;-59
2021/09/06 00:07:57;;;;;;;20.48;13.35;;;;;;;17.21;70.30;102177.91;5037470;28;20052;-59
2021/09/06 00:10:47;;;;;;;20.58;13.43;;;;;;;17.22;69.67;102180.41;5049019;28;20052;-60
2021/09/06 00:13:35;;;;;;;19.10;13.82;;;;;;;17.18;69.87;102184.81;5049375;28;20068;-59
2021/09/06 00:16:23;;;;;;;19.52;13.63;;;;;;;17.13;70.39;102189.53;5051606;28;20511;-60
2021/09/06 00:19:10;;;;;;;21.17;13.35;;;;;;;17.10;70.66;102187.31;5046979;28;20056;-60
2021/09/06 00:21:38;;;;;;;21.30;13.35;;;;;;;17.09;70.56;102191.16;5051698;28;20041;-60
2021/09/06 00:24:06;;;;;;;18.95;13.57;;;;;;;17.08;70.58;102195.84;5051463;28;20039;-60
2021/09/06 00:26:34;;;;;;;22.95;13.75;;;;;;;17.05;70.85;102188.13;5051376;28;20111;-58
2021/09/06 00:29:13;;;;;;;20.58;14.13;;;;;;;17.03;70.85;102190.38;5051519;28;20037;-59
2021/09/06 00:31:41;;;;;;;21.75;14.07;;;;;;;16.98;71.11;102191.19;5051729;28;20111;-60
2021/09/06 00:34:09;;;;;;;22.58;14.55;;;;;;;16.91;71.01;102189.81;5051422;28;20064;-59
2021/09/06 00:36:37;;;;;;;21.20;13.65;;;;;;;16.87;71.32;102192.31;5051702;28;20128;-60
2021/09/06 00:39:05;;;;;;;20.13;13.52;;;;;;;16.88;71.60;102187.63;5034209;28;20037;-59
2021/09/06 00:41:33;;;;;;;19.20;13.93;;;;;;;16.86;71.58;102193.41;5051607;28;20041;-60
2021/09/06 00:44:08;;;;;;;21.63;13.95;;;;;;;16.79;71.49;102185.44;5017559;28;20403;-60
2021/09/06 00:46:44;;;;;;;21.83;14.02;;;;;;;16.75;72.27;102183.47;5033687;28;20069;-59
2021/09/06 00:49:14;;;;;;;23.08;13.68;;;;;;;16.75;71.90;102189.81;5033640;28;20094;-59
2021/09/06 00:51:45;;;;;;;20.08;13.68;;;;;;;16.79;71.72;102190.13;5017721;28;20037;-59
2021/09/06 00:54:14;;;;;;;18.95;13.35;;;;;;;16.79;71.85;102190.13;5033774;28;20037;-59
2021/09/06 00:56:59;;;;;;;20.15;13.63;;;;;;;16.76;71.83;102185.13;5019392;28;20045;-59
2021/09/06 00:59:35;;;;;;;22.02;13.27;;;;;;;16.75;71.41;102189.81;5017732;28;20065;-60
2021/09/06 01:02:23;;;;;;;22.17;14.27;;;;;;;16.73;71.86;102192.00;5050747;28;20101;-60
2021/09/06 01:05:14;;;;;;;20.60;13.63;;;;;;;16.73;71.73;102193.94;5054610;28;20041;-59
2021/09/06 01:08:31;;;;;;;20.70;14.38;;;;;;;16.68;71.87;102196.69;5054999;28;20041;-60
2021/09/06 01:11:37;;;;;;;23.98;13.45;;;;;;;16.68;71.44;102193.94;5051890;28;20048;-60
2021/09/06 01:14:39;;;;;;;18.65;13.13;;;;;;;16.65;71.71;102186.25;5037381;28;20051;-60
2021/09/06 01:17:28;;;;;;;20.20;13.57;;;;;;;16.62;71.61;102193.13;5037355;28;20165;-59
2021/09/06 01:19:58;;;;;;;21.08;14.32;;;;;;;16.60;71.70;102182.38;5036708;28;20507;-61
2021/09/06 01:22:46;;;;;;;19.27;13.43;;;;;;;16.60;71.69;102187.88;5037243;28;20060;-61
2021/09/06 01:25:42;;;;;;;20.85;14.10;;;;;;;16.60;71.55;102187.06;5053688;28;20049;-61
2021/09/06 01:28:31;;;;;;;20.35;14.45;;;;;;;16.58;71.56;102181.00;5039112;28;20041;-59
2021/09/06 01:31:22;;;;;;;20.85;13.70;;;;;;;16.56;71.45;102185.97;5053620;28;20114;-60
2021/09/06 01:34:11;;;;;;;20.90;13.50;;;;;;;16.51;71.51;102189.53;5054228;28;20138;-59
2021/09/06 01:37:01;;;;;;;18.90;13.52;;;;;;;16.49;71.81;102190.91;5039115;28;20415;-59
2021/09/06 01:39:31;;;;;;;20.73;13.57;;;;;;;16.50;71.77;102187.88;5036369;28;20110;-59
2021/09/06 01:42:00;;;;;;;19.55;13.35;;;;;;;16.50;71.56;102187.88;5036382;28;20045;-59
2021/09/06 01:44:27;;;;;;;20.60;14.30;;;;;;;16.49;71.80;102186.22;5036394;28;20044;-59
2021/09/06 01:46:56;;;;;;;21.48;13.88;;;;;;;16.46;71.94;102175.78;5036314;28;20048;-59
2021/09/06 01:49:25;;;;;;;18.98;13.57;;;;;;;16.44;71.74;102177.16;5036423;28;20049;-59
2021/09/06 01:51:52;;;;;;;21.15;14.35;;;;;;;16.36;71.97;102178.53;5036416;28;20167;-59
2021/09/06 01:54:20;;;;;;;19.05;14.05;;;;;;;16.23;72.49;102177.13;5035518;28;20067;-57
2021/09/06 01:56:49;;;;;;;21.02;14.45;;;;;;;16.18;72.98;102186.19;5019722;28;20451;-60
2021/09/06 01:59:19;;;;;;;21.02;14.10;;;;;;;16.16;73.16;102182.91;5019767;28;20400;-59
2021/09/06 02:01:50;;;;;;;20.90;13.82;;;;;;;16.15;72.80;102173.00;5019831;28;20044;-59
2021/09/06 02:04:20;;;;;;;18.83;13.77;;;;;;;16.08;72.83;102177.09;5003317;28;20041;-60
2021/09/06 02:06:52;;;;;;;24.90;13.80;;;;;;;16.03;73.40;102175.16;5020057;28;20049;-59
2021/09/06 02:09:35;;;;;;;23.15;14.32;;;;;;;16.03;73.55;102186.16;5035760;28;20442;-56
2021/09/06 02:12:09;;;;;;;20.58;14.10;;;;;;;16.05;73.52;102188.66;5036111;28;20041;-59
2021/09/06 02:14:43;;;;;;;19.77;14.10;;;;;;;16.04;73.40;102189.72;5018939;28;20510;-59
2021/09/06 02:17:32;;;;;;;20.30;14.07;;;;;;;16.02;73.69;102192.78;5036152;28;20099;-58
2021/09/06 02:20:00;;;;;;;22.23;14.00;;;;;;;16.01;73.43;102190.28;5035973;28;20072;-61
2021/09/06 02:22:48;;;;;;;20.08;13.90;;;;;;;15.98;73.51;102186.16;5035912;28;20049;-59
2021/09/06 02:25:16;;;;;;;20.13;14.32;;;;;;;16.03;73.63;102191.66;5035239;28;20063;-60
2021/09/06 02:28:07;;;;;;;20.60;13.32;;;;;;;16.10;73.18;102189.47;5036197;28;20049;-60
2021/09/06 02:30:35;;;;;;;19.15;13.93;;;;;;;16.16;72.50;102195.81;5019199;28;20561;-60
2021/09/06 02:33:23;;;;;;;22.80;14.50;;;;;;;16.17;72.63;102187.28;5036132;28;20106;-60
2021/09/06 02:36:26;;;;;;;18.48;13.85;;;;;;;16.18;72.46;102185.38;5020494;28;20041;-59
2021/09/06 02:39:14;;;;;;;19.52;14.40;;;;;;;16.14;72.41;102176.84;5038872;28;20040;-59
2021/09/06 02:42:04;;;;;;;21.35;14.80;;;;;;;16.08;72.39;102188.09;5038300;28;20044;-59
2021/09/06 02:44:54;;;;;;;19.30;13.25;;;;;;;16.02;72.77;102190.03;5036828;28;20044;-58
2021/09/06 02:47:47;;;;;;;20.30;14.30;;;;;;;16.04;72.23;102190.56;5038165;28;20501;-59
2021/09/06 02:50:16;;;;;;;22.63;14.05;;;;;;;15.99;72.46;102193.28;5035467;28;20132;-59
2021/09/06 02:53:05;;;;;;;21.80;14.68;;;;;;;15.94;72.15;102191.34;5038434;28;20110;-59
2021/09/06 02:55:52;;;;;;;20.48;14.45;;;;;;;15.93;72.54;102195.22;5038463;28;20052;-59
2021/09/06 02:58:30;;;;;;;20.75;14.35;;;;;;;15.92;72.68;102192.72;5036785;28;20451;-60
2021/09/06 03:01:17;;;;;;;21.85;14.75;;;;;;;15.89;72.79;102193.28;5050290;28;20048;-59
2021/09/06 03:03:48;;;;;;;20.98;15.95;;;;;;;15.91;73.28;102196.59;5053529;28;20075;-59
2021/09/06 03:06:36;;;;;;;24.25;16.35;;;;;;;15.88;73.39;102186.13;5052573;28;20045;-59
2021/09/06 03:09:26;;;;;;;25.42;15.25;;;;;;;15.80;73.86;102192.13;5037774;28;20123;-59
2021/09/06 03:12:14;;;;;;;21.92;15.32;;;;;;;15.70;73.78;102193.75;5037990;28;20053;-60
2021/09/06 03:15:06;;;;;;;21.88;15.68;;;;;;;15.65;74.45;102182.72;5052388;28;20523;-60
2021/09/06 03:17:35;;;;;;;22.85;16.05;;;;;;;15.69;74.55;102174.78;5018062;28;20045;-59
2021/09/06 03:20:16;;;;;;;23.33;15.35;;;;;;;15.71;74.02;102178.94;5052509;28;20045;-59
2021/09/06 03:22:46;;;;;;;20.92;15.88;;;;;;;15.68;73.80;102187.69;5034665;28;20055;-58
2021/09/06 03:25:17;;;;;;;22.73;16.02;;;;;;;15.67;74.00;102185.19;5051587;28;20045;-58
2021/09/06 03:27:45;;;;;;;21.00;15.00;;;;;;;15.66;73.52;102178.88;5034323;28;20577;-57
2021/09/06 03:30:13;;;;;;;20.13;15.20;;;;;;;15.64;73.67;102181.06;5034337;28;20081;-54
2021/09/06 03:32:42;;;;;;;23.08;16.20;;;;;;;15.61;73.83;102184.38;5034482;28;20049;-60
2021/09/06 03:35:12;;;;;;;25.27;16.10;;;;;;;15.58;74.22;102184.88;5034279;28;20045;-59
2021/09/06 03:37:43;;;;;;;22.55;15.77;;;;;;;15.59;73.63;102183.81;5034257;28;20558;-59
2021/09/06 03:40:11;;;;;;;21.23;15.27;;;;;;;15.62;73.60;102182.44;5051912;28;20529;-59
2021/09/06 03:42:39;;;;;;;19.33;14.65;;;;;;;15.67;73.33;102185.19;5034629;28;20041;-60
2021/09/06 03:45:09;;;;;;;20.10;14.85;;;;;;;15.66;73.58;102178.88;5034155;28;20045;-60
2021/09/06 03:47:38;;;;;;;23.88;16.23;;;;;;;15.66;73.25;102183.56;5020642;28;20045;-60
2021/09/06 03:50:06;;;;;;;21.30;15.93;;;;;;;15.58;73.32;102182.13;5017669;28;20064;-60
2021/09/06 03:52:38;;;;;;;23.08;15.60;;;;;;;15.53;73.95;102193.91;5017820;28;20069;-59
2021/09/06 03:55:15;;;;;;;24.27;15.98;;;;;;;15.50;73.85;102188.97;5018482;28;20047;-59
2021/09/06 03:57:50;;;;;;;22.30;16.07;;;;;;;15.52;73.85;102195.03;5034170;28;20491;-60
2021/09/06 04:00:27;;;;;;;21.27;15.48;;;;;;;15.57;73.53;102193.41;5018679;28;20055;-59
2021/09/06 04:03:15;;;;;;;21.92;15.80;;;;;;;15.59;73.44;102189.28;5037122;28;20045;-59
2021/09/06 04:06:03;;;;;;;20.38;14.95;;;;;;;15.60;73.17;102185.44;5036468;28;20049;-60
2021/09/06 04:08:51;;;;;;;21.15;15.43;;;;;;;15.58;73.17;102187.63;5037075;28;20045;-59
2021/09/06 04:11:39;;;;;;;22.98;16.00;;;;;;;15.53;73.41;102184.84;5037253;28;20411;-58
2021/09/06 04:14:07;;;;;;;24.23;16.63;;;;;;;15.50;73.25;102193.66;5034007;28;20482;-56
2021/09/06 04:16:54;;;;;;;20.55;15.00;;;;;;;15.48;73.64;102195.81;5033988;28;20084;-58
2021/09/06 04:19:42;;;;;;;22.50;15.35;;;;;;;15.47;73.79;102192.25;5033904;28;20048;-58
2021/09/06 04:22:30;;;;;;;25.65;16.13;;;;;;;15.41;73.02;102198.00;5034413;28;20052;-58
2021/09/06 04:25:18;;;;;;;24.13;16.38;;;;;;;15.26;73.84;102193.25;5051634;28;20051;-58
2021/09/06 04:28:06;;;;;;;21.67;15.80;;;;;;;15.17;74.74;102186.59;5036846;28;20048;-59
2021/09/06 04:30:54;;;;;;;21.40;15.52;;;;;;;15.24;74.61;102187.19;5036891;28;20053;-59
2021/09/06 04:33:47;;;;;;;23.83;15.93;;;;;;;15.28;74.04;102194.63;5033615;28;20084;-57
2021/09/06 04:36:36;;;;;;;20.38;15.73;;;;;;;15.25;73.85;102195.16;5035305;28;20484;-58
2021/09/06 04:39:07;;;;;;;22.73;16.42;;;;;;;15.20;73.37;102197.88;5021527;28;20415;-60
2021/09/06 04:41:34;;;;;;;20.90;14.65;;;;;;;15.14;73.77;102204.44;5055343;28;20079;-59
2021/09/06 04:44:02;;;;;;;21.98;15.55;;;;;;;15.12;73.60;102201.94;5037494;28;20041;-58
2021/09/06 04:46:30;;;;;;;23.75;15.90;;;;;;;15.13;74.08;102208.28;5020864;28;20067;-58
2021/09/06 04:48:58;;;;;;;23.58;15.38;;;;;;;15.15;73.57;102211.56;5037083;28;20519;-59
2021/09/06 04:51:26;;;;;;;21.67;16.02;;;;;;;15.16;73.64;102210.50;5055312;28;20113;-59
2021/09/06 04:53:56;;;;;;;21.83;15.32;;;;;;;15.19;73.43;102220.13;5037219;28;20055;-58
2021/09/06 04:56:25;;;;;;;23.13;16.27;;;;;;;15.21;73.06;102224.25;5037092;28;20048;-59
2021/09/06 04:58:58;;;;;;;23.35;15.80;;;;;;;15.21;72.99;102216.00;5037137;28;20045;-57
2021/09/06 05:01:25;;;;;;;21.73;16.05;;;;;;;15.22;72.45;102217.66;5037142;28;20076;-59
2021/09/06 05:03:56;;;;;;;21.50;16.02;;;;;;;15.22;72.59;102223.13;5036936;28;20075;-60
2021/09/06 05:06:24;;;;;;;22.42;15.00;;;;;;;15.20;72.63;102225.34;5020871;28;20819;-60
2021/09/06 05:08:53;;;;;;;21.70;16.23;;;;;;;15.21;72.70;102227.00;5020670;28;20049;-59
2021/09/06 05:11:22;;;;;;;21.63;15.65;;;;;;;15.18;72.94;102230.28;5020606;28;20068;-59
2021/09/06 05:13:59;;;;;;;23.15;15.55;;;;;;;15.17;73.33;102228.59;5021199;28;20065;-59
2021/09/06 05:16:38;;;;;;;30.67;17.15;;;;;;;15.15;73.32;102238.19;5021624;28;20462;-57
2021/09/06 05:19:19;;;;;;;22.67;15.30;;;;;;;15.12;73.21;102239.56;5021630;28;20095;-59
2021/09/06 05:22:05;;;;;;;21.95;16.02;;;;;;;15.04;73.50;102245.53;5036995;28;20051;-60
2021/09/06 05:24:56;;;;;;;25.38;16.27;;;;;;;15.02;73.92;102239.50;5037052;28;20152;-60
2021/09/06 05:27:28;;;;;;;23.65;15.85;;;;;;;15.03;73.66;102249.38;5020586;28;20076;-59
2021/09/06 05:30:16;;;;;;;22.65;15.07;;;;;;;15.02;74.03;102245.78;5054481;28;20045;-59
2021/09/06 05:32:45;;;;;;;22.88;16.35;;;;;;;15.06;74.03;102252.44;5038184;28;20091;-56
2021/09/06 05:35:33;;;;;;;21.17;15.18;;;;;;;15.11;73.69;102246.97;5054790;28;20045;-57
2021/09/06 05:38:21;;;;;;;21.65;16.10;;;;;;;15.17;73.20;102252.50;5039641;28;20041;-56
2021/09/06 05:41:31;;;;;;;24.83;16.35;;;;;;;15.15;73.61;102252.75;5054162;28;20551;-55
2021/09/06 05:44:20;;;;;;;23.65;15.90;;;;;;;15.17;73.58;102260.72;5039550;28;20037;-58
2021/09/06 05:47:09;;;;;;;22.80;15.68;;;;;;;15.19;73.19;102264.03;5039599;28;20064;-57
2021/09/06 05:50:03;;;;;;;22.25;15.73;;;;;;;15.20;73.29;102266.53;5038968;28;20447;-57
2021/09/06 05:52:57;;;;;;;24.93;16.23;;;;;;;15.20;74.10;102266.53;5039353;28;20060;-58
2021/09/06 05:55:46;;;;;;;25.00;17.85;;;;;;;15.21;74.52;102264.59;5038780;28;20067;-58
2021/09/06 05:58:35;;;;;;;26.30;17.92;;;;;;;15.12;75.10;102267.00;5036725;28;20045;-59
2021/09/06 06:01:23;;;;;;;24.30;16.13;;;;;;;15.06;75.71;102265.31;5036442;28;20048;-59
2021/09/06 06:04:12;;;;;;;25.73;16.45;;;;;;;15.06;75.75;102268.06;5038594;28;20380;-59
2021/09/06 06:07:05;;;;;;;27.17;17.85;;;;;;;15.08;76.43;102277.69;5038842;28;20111;-60
2021/09/06 06:09:38;;;;;;;25.55;18.42;;;;;;;15.10;76.84;102286.50;5015984;28;20045;-60
2021/09/06 06:12:28;;;;;;;25.80;17.52;;;;;;;15.12;77.33;102280.72;5033216;28;20057;-59
2021/09/06 06:15:16;;;;;;;23.15;16.57;;;;;;;15.17;77.28;102285.44;4340750;28;10000825;-60
2021/09/06 06:17:44;;;;;;;27.63;17.48;;;;;;;15.17;78.02;102288.19;5016825;28;20060;-59
2021/09/06 06:20:32;;;;;;;25.35;18.23;;;;;;;15.16;78.73;102292.84;5033376;28;20049;-58
2021/09/06 06:23:36;;;;;;;30.83;19.88;;;;;;;15.11;79.50;102288.16;5036070;28;20076;-60
2021/09/06 06:26:34;;;;;;;28.45;20.17;;;;;;;15.05;80.29;102294.69;5035878;28;20492;-57
2021/09/06 06:29:24;;;;;;;27.17;19.08;;;;;;;15.05;81.02;102291.94;5036031;28;20492;-60
2021/09/06 06:32:12;;;;;;;28.13;20.13;;;;;;;15.03;81.66;102294.13;5035866;28;20056;-59
2021/09/06 06:34:52;;;;;;;26.60;17.08;;;;;;;15.05;81.68;102299.34;5017675;28;20071;-58
2021/09/06 06:37:20;;;;;;;24.73;19.90;;;;;;;15.11;82.21;102292.81;5035055;28;20045;-55
2021/09/06 06:39:47;;;;;;;26.23;19.48;;;;;;;15.14;81.92;102295.03;5018935;28;20045;-56
2021/09/06 06:42:15;;;;;;;30.52;20.92;;;;;;;15.14;82.43;102297.78;5035252;28;20373;-57
2021/09/06 06:44:44;;;;;;;31.98;19.98;;;;;;;15.17;82.64;102300.00;5034614;28;20091;-59
2021/09/06 06:47:17;;;;;;;28.88;20.60;;;;;;;15.24;82.71;102302.50;5034844;28;20052;-60
2021/09/06 06:49:46;;;;;;;29.88;21.23;;;;;;;15.30;82.43;102304.22;5035143;28;20037;-56
2021/09/06 06:52:15;;;;;;;30.58;21.27;;;;;;;15.33;82.63;102301.75;5034872;28;20491;-60
2021/09/06 06:54:45;;;;;;;30.38;21.58;;;;;;;15.35;82.91;102307.00;5034510;28;20041;-57
2021/09/06 06:57:13;;;;;;;32.00;21.48;;;;;;;15.40;82.78;102306.22;5052557;28;20044;-60
2021/09/06 06:59:42;;;;;;;28.67;20.40;;;;;;;15.44;82.89;102308.16;5014914;28;20033;-59
2021/09/06 07:02:13;;;;;;;35.92;23.17;;;;;;;15.47;83.40;102312.31;5011556;28;20048;-59
2021/09/06 07:04:42;;;;;;;49.35;36.63;;;;;;;15.48;83.30;102314.75;5018427;28;20052;-62
2021/09/06 07:07:15;;;;;;;33.70;21.90;;;;;;;15.51;83.83;102321.66;5015444;28;20060;-60
2021/09/06 07:09:46;;;;;;;29.27;20.33;;;;;;;15.57;83.27;102322.53;5015547;28;20098;-60
2021/09/06 07:12:34;;;;;;;25.35;18.48;;;;;;;15.67;82.50;102322.59;5034900;28;20049;-59
2021/09/06 07:15:07;;;;;;;30.25;20.67;;;;;;;15.71;82.53;102318.25;5034279;28;20056;-61
2021/09/06 07:17:42;;;;;;;33.65;23.50;;;;;;;15.77;82.47;102317.16;5018756;28;20055;-61
2021/09/06 07:20:27;;;;;;;28.63;21.08;;;;;;;15.81;82.23;102318.31;5017070;28;20067;-60
2021/09/06 07:23:05;;;;;;;28.10;18.80;;;;;;;15.87;82.23;102316.41;5019338;28;20078;-60
2021/09/06 07:25:56;;;;;;;31.52;19.30;;;;;;;15.92;81.80;102336.50;5034820;28;20068;-60
2021/09/06 07:28:46;;;;;;;31.17;17.30;;;;;;;15.96;81.30;102340.38;5020558;28;20069;-60
2021/09/06 07:31:35;;;;;;;32.65;23.20;;;;;;;16.01;81.42;102336.00;5049359;28;20474;-59
2021/09/06 07:34:05;;;;;;;32.38;23.00;;;;;;;16.04;81.26;102328.03;5034353;28;20068;-60
2021/09/06 07:36:53;;;;;;;35.55;24.48;;;;;;;16.07;81.77;102333.00;5034626;28;20467;-60
2021/09/06 07:39:23;;;;;;;32.40;22.08;;;;;;;16.10;82.14;102339.88;5034342;28;20119;-59
2021/09/06 07:42:11;;;;;;;32.78;19.25;;;;;;;16.14;81.75;102338.25;5036836;28;20048;-60
2021/09/06 07:45:00;;;;;;;32.63;24.25;;;;;;;16.21;81.78;102343.50;5037067;28;20048;-60
2021/09/06 07:47:32;;;;;;;33.65;22.80;;;;;;;16.24;81.87;102351.22;5017941;28;20072;-60
2021/09/06 07:50:23;;;;;;;30.90;22.42;;;;;;;16.26;82.16;102358.13;5035020;28;20053;-60
2021/09/06 07:52:51;;;;;;;32.63;22.55;;;;;;;16.30;82.61;102352.88;5017733;28;20410;-60
2021/09/06 07:55:39;;;;;;;29.45;19.65;;;;;;;16.35;82.28;102355.66;5036656;28;20238;-60
2021/09/06 07:58:27;;;;;;;31.67;23.90;;;;;;;16.39;82.68;102354.84;5037092;28;20056;-61
2021/09/06 08:00:55;;;;;;;35.97;24.58;;;;;;;16.43;82.94;102354.31;5034013;28;20065;-58
2021/09/06 08:03:43;;;;;;;37.97;25.52;;;;;;;16.49;82.50;102354.06;5034944;28;20152;-60
2021/09/06 08:06:12;;;;;;;31.33;21.80;;;;;;;16.54;81.49;102353.25;5065825;28;20029;-61
2021/09/06 08:09:01;;;;;;;30.98;22.05;;;;;;;16.58;81.84;102360.69;5034395;28;20411;-59
2021/09/06 08:11:30;;;;;;;26.80;18.17;;;;;;;16.65;81.35;102359.63;5034690;28;20049;-60
2021/09/06 08:14:18;;;;;;;27.90;18.95;;;;;;;16.69;81.08;102360.72;5041371;28;20049;-60
2021/09/06 08:17:06;;;;;;;30.27;21.67;;;;;;;16.75;81.55;102362.38;5041088;28;20060;-61
2021/09/06 08:19:57;;;;;;;25.83;18.20;;;;;;;16.79;81.13;102360.78;5027479;28;20491;-61
2021/09/06 08:22:24;;;;;;;34.70;22.02;;;;;;;16.84;81.29;102363.53;5038457;28;20041;-61
2021/09/06 08:24:55;;;;;;;30.30;22.00;;;;;;;16.91;80.42;102364.09;5041055;28;20055;-60
2021/09/06 08:27:22;;;;;;;34.30;19.65;;;;;;;16.95;80.11;102367.94;5042485;28;20053;-60
2021/09/06 08:29:50;;;;;;;30.02;20.92;;;;;;;17.00;80.56;102367.13;5043181;28;20077;-60
2021/09/06 08:32:19;;;;;;;28.40;21.60;;;;;;;17.02;80.21;102368.50;5038460;28;20049;-61
2021/09/06 08:34:49;;;;;;;34.53;22.85;;;;;;;17.09;80.51;102370.19;5018244;28;20049;-60
2021/09/06 08:37:17;;;;;;;34.13;22.42;;;;;;;17.15;79.65;102369.06;5034761;28;20053;-60
2021/09/06 08:39:46;;;;;;;28.45;20.67;;;;;;;17.19;79.78;102370.19;5021886;28;20047;-59
2021/09/06 08:42:15;;;;;;;41.40;28.88;;;;;;;17.22;79.92;102366.88;5040681;28;20057;-59
2021/09/06 08:44:44;;;;;;;38.88;24.65;;;;;;;17.30;79.67;102371.84;5040595;28;20045;-60
2021/09/06 08:47:15;;;;;;;28.98;17.30;;;;;;;17.33;79.45;102374.03;5017966;28;20045;-60
2021/09/06 08:49:46;;;;;;;25.60;18.70;;;;;;;17.36;79.80;102379.00;5017994;28;20045;-60
2021/09/06 08:52:17;;;;;;;35.80;24.15;;;;;;;17.40;79.17;102382.84;5018055;28;20048;-59
2021/09/06 08:54:57;;;;;;;28.05;20.65;;;;;;;17.43;77.81;102382.28;5018702;28;20045;-60
2021/09/06 08:57:28;;;;;;;30.38;21.45;;;;;;;17.47;78.15;102382.59;5017992;28;20068;-60
2021/09/06 09:00:04;;;;;;;27.08;19.55;;;;;;;17.54;77.61;102387.81;5018151;28;20041;-60
2021/09/06 09:02:51;;;;;;;22.70;15.68;;;;;;;17.57;76.93;102387.25;5018343;28;20084;-59
2021/09/06 09:06:00;;;;;;;24.63;16.63;;;;;;;17.61;76.79;102382.84;5018305;28;20049;-60
2021/09/06 09:08:57;;;;;;;27.20;19.27;;;;;;;17.66;76.74;102385.59;5033552;28;20060;-58
2021/09/06 09:12:13;;;;;;;22.60;15.75;;;;;;;17.68;76.57;102383.41;5024554;28;20049;-60
2021/09/06 09:15:26;;;;;;;25.95;18.85;;;;;;;17.75;77.01;102380.34;5022919;28;20053;-60
2021/09/06 09:18:34;;;;;;;26.75;19.08;;;;;;;17.81;75.68;102384.78;5034822;28;20052;-59
2021/09/06 09:21:32;;;;;;;21.45;13.63;;;;;;;17.86;74.72;102380.06;5031225;28;20054;-60
2021/09/06 09:24:22;;;;;;;21.77;13.85;;;;;;;17.90;74.53;102380.34;5031680;28;20464;-60
2021/09/06 09:27:45;;;;;;;24.60;17.05;;;;;;;17.92;74.75;102378.16;4971391;28;20059;-60
2021/09/06 09:30:33;;;;;;;24.10;17.98;;;;;;;18.00;74.62;102379.50;4941633;28;20074;-60
2021/09/06 09:33:52;;;;;;;22.90;16.20;;;;;;;18.15;71.51;102378.63;4957824;28;20059;-60
2021/09/06 09:36:59;;;;;;;25.85;15.35;;;;;;;18.24;70.76;102375.00;4970995;28;20050;-60
2021/09/06 09:39:56;;;;;;;24.70;16.67;;;;;;;18.25;70.91;102382.16;4973079;28;20117;-59
2021/09/06 09:42:50;;;;;;;24.30;17.98;;;;;;;18.29;71.03;102380.50;4971301;28;20070;-60
2021/09/06 09:45:38;;;;;;;22.00;15.73;;;;;;;18.40;70.44;102380.44;4971093;28;20042;-60
2021/09/06 09:48:46;;;;;;;24.75;16.42;;;;;;;18.44;70.05;102385.09;4973115;28;20047;-60
2021/09/06 09:51:36;;;;;;;23.67;15.90;;;;;;;18.49;69.77;102385.09;4970864;28;20560;-59
2021/09/06 09:54:07;;;;;;;23.63;15.73;;;;;;;18.49;69.12;102389.78;4972479;28;20521;-60
2021/09/06 09:56:35;;;;;;;20.77;14.65;;;;;;;18.48;69.64;102385.38;4973205;28;20055;-60
2021/09/06 09:59:03;;;;;;;22.35;10.98;;;;;;;18.50;70.72;102383.16;4972688;28;20039;-60
2021/09/06 10:01:37;;;;;;;24.83;16.05;;;;;;;18.53;69.68;102383.41;5004969;28;20107;-60
2021/09/06 10:04:07;;;;;;;21.58;15.43;;;;;;;18.62;68.13;102378.13;5033987;28;20041;-59
2021/09/06 10:06:35;;;;;;;24.08;15.68;;;;;;;18.75;66.56;102387.72;5032385;28;20069;-60
2021/09/06 10:09:06;;;;;;;25.85;15.95;;;;;;;18.87;65.55;102379.13;5032511;28;20045;-60
2021/09/06 10:11:38;;;;;;;22.08;15.43;;;;;;;18.92;65.04;102379.91;5033732;28;20038;-60
2021/09/06 10:14:26;;;;;;;22.73;15.07;;;;;;;18.95;64.85;102375.72;5032982;28;20109;-59
2021/09/06 10:17:08;;;;;;;28.08;14.48;;;;;;;19.00;64.81;102380.41;5032602;28;20099;-59
2021/09/06 10:19:40;;;;;;;24.35;14.98;;;;;;;19.06;62.81;102374.56;5020226;28;20100;-56
2021/09/06 10:22:24;;;;;;;37.45;18.30;;;;;;;19.04;64.73;102371.25;5031647;28;20053;-59
2021/09/06 10:24:56;;;;;;;31.60;16.25;;;;;;;19.06;65.20;102374.56;5037292;28;20500;-60
2021/09/06 10:27:25;;;;;;;34.08;16.95;;;;;;;19.03;65.01;102374.31;5031947;28;20081;-61
2021/09/06 10:30:10;;;;;;;29.75;14.82;;;;;;;19.10;65.88;102370.13;5032002;28;20053;-60
2021/09/06 10:32:48;;;;;;;23.60;14.35;;;;;;;19.15;63.71;102378.38;5032192;28;20128;-60
2021/09/06 10:35:27;;;;;;;20.48;13.35;;;;;;;19.16;62.97;102373.66;5031377;28;20037;-60
2021/09/06 10:38:13;;;;;;;20.80;13.00;;;;;;;19.21;62.32;102381.91;5031923;28;20049;-61
2021/09/06 10:41:09;;;;;;;18.88;12.82;;;;;;;19.24;62.30;102386.03;5033193;28;20069;-58
2021/09/06 10:44:07;;;;;;;60.53;25.63;;;;;;;19.24;69.14;102378.59;5032539;28;20046;-60
2021/09/06 10:46:58;;;;;;;20.30;12.85;;;;;;;19.22;63.32;102379.97;5032504;28;20052;-55
2021/09/06 10:49:32;;;;;;;23.08;14.00;;;;;;;19.36;61.75;102376.25;4336760;28;10000513;-60
2021/09/06 10:52:25;;;;;;;21.00;11.98;;;;;;;19.38;62.37;102373.19;5030198;28;20137;-60
2021/09/06 10:54:58;;;;;;;25.20;15.75;;;;;;;19.59;60.95;102373.84;5013952;28;20072;-59
2021/09/06 10:57:48;;;;;;;24.20;14.45;;;;;;;19.63;60.21;102372.16;5030230;28;20054;-60
2021/09/06 11:00:36;;;;;;;18.05;12.52;;;;;;;19.62;59.54;102369.66;5030032;28;20169;-59
2021/09/06 11:03:30;;;;;;;20.15;11.55;;;;;;;19.75;59.17;102380.91;5030776;28;20068;-52
2021/09/06 11:06:01;;;;;;;19.23;12.35;;;;;;;19.83;59.37;102376.66;5030128;28;20099;-61
2021/09/06 11:08:49;;;;;;;30.70;14.95;;;;;;;19.82;60.55;102369.50;5031835;28;20136;-59
2021/09/06 11:11:18;;;;;;;21.20;12.38;;;;;;;19.79;58.48;102367.31;5030705;28;20045;-60
2021/09/06 11:14:06;;;;;;;23.48;13.25;;;;;;;19.77;59.66;102366.75;5030268;28;20045;-58
2021/09/06 11:16:54;;;;;;;19.08;12.98;;;;;;;19.90;60.82;102366.09;5030786;28;20154;-60
2021/09/06 11:19:29;;;;;;;21.65;13.60;;;;;;;19.94;60.55;102364.38;5029298;28;20049;-59
2021/09/06 11:22:18;;;;;;;25.83;13.38;;;;;;;19.89;61.33;102350.63;5030822;28;20936;-60
2021/09/06 11:25:09;;;;;;;22.48;12.38;;;;;;;19.96;61.82;102355.78;5017399;28;20502;-60
2021/09/06 11:28:06;;;;;;;27.88;18.13;;;;;;;20.00;61.65;102351.31;5010085;28;20050;-61
2021/09/06 11:30:56;;;;;;;21.05;14.43;;;;;;;19.96;61.82;102342.78;5010397;28;20125;-63
2021/09/06 11:33:24;;;;;;;21.08;12.35;;;;;;;19.93;62.71;102342.53;5008781;28;20092;-59
2021/09/06 11:35:51;;;;;;;19.52;13.13;;;;;;;19.99;61.74;102341.38;5009300;28;20495;-59
2021/09/06 11:38:19;;;;;;;22.52;13.88;;;;;;;20.16;59.40;102349.19;5010371;28;20042;-61
2021/09/06 11:40:55;;;;;;;21.13;12.80;;;;;;;20.28;58.46;102348.78;5010280;28;20049;-61
2021/09/06 11:43:25;;;;;;;19.73;11.48;;;;;;;20.34;56.66;102344.78;5010371;28;20096;-59
2021/09/06 11:46:00;;;;;;;30.27;14.77;;;;;;;20.27;60.21;102336.84;5008605;28;20052;-61
2021/09/06 11:48:38;;;;;;;24.05;13.27;;;;;;;20.25;57.85;102343.81;5008486;28;20117;-60
2021/09/06 11:51:07;;;;;;;19.65;12.88;;;;;;;20.28;57.74;102351.53;5010261;28;20049;-60
2021/09/06 11:53:35;;;;;;;19.75;12.27;;;;;;;20.32;57.80;102344.25;5010426;28;20041;-61
2021/09/06 11:56:04;;;;;;;20.50;12.68;;;;;;;20.39;57.28;102350.25;5008275;28;20049;-60
2021/09/06 11:58:50;;;;;;;19.67;13.25;;;;;;;20.40;57.29;102344.44;4995021;28;20046;-60
2021/09/06 12:01:19;;;;;;;18.08;12.02;;;;;;;20.36;57.12;102337.84;5008387;28;20046;-60
2021/09/06 12:03:51;;;;;;;19.95;11.80;;;;;;;20.47;55.88;102335.78;4989462;28;20105;-60
2021/09/06 12:06:31;;;;;;;18.33;10.93;;;;;;;20.46;56.24;102338.81;4996649;28;20500;-62
2021/09/06 12:09:10;;;;;;;21.42;12.25;;;;;;;20.50;53.63;102345.44;5008622;28;20759;-60